Time;durP1;ratioP1;P1;durP2;ratioP2;P2;SDS_P1;SDS_P2;PMS_P1;PMS_P2;Temp;Humidity;BMP_temperature;BMP_pressure;BME280_temperature;BME280_humidity;BME280_pressure;Samples;Min_cycle;Max_cycle;Signal;HPM_P1;HPM_P2
2022/03/10 00:01:55;;;;;;;19.40;12.07;;;;;;;-0.68;100.00;94571.56;5074492;28;20297;-63
2022/03/10 00:04:21;;;;;;;18.10;11.80;;;;;;;-0.60;100.00;94592.03;5074624;28;20267;-64
2022/03/10 00:06:46;;;;;;;21.03;12.23;;;;;;;-0.55;100.00;94585.97;5074055;28;20203;-62
2022/03/10 00:09:11;;;;;;;17.70;11.33;;;;;;;-0.50;100.00;94584.06;5073843;28;20199;-64
2022/03/10 00:11:37;;;;;;;18.47;11.80;;;;;;;-0.66;100.00;94585.63;5073700;28;20196;-65
2022/03/10 00:14:03;;;;;;;19.63;12.03;;;;;;;-0.86;100.00;94578.16;5073960;28;20184;-64
2022/03/10 00:16:28;;;;;;;21.50;13.30;;;;;;;-0.93;100.00;94570.13;5074203;28;20230;-62
2022/03/10 00:18:54;;;;;;;23.93;13.20;;;;;;;-0.86;100.00;94573.16;5056049;28;20325;-63
2022/03/10 00:21:19;;;;;;;22.70;12.63;;;;;;;-0.86;100.00;94578.97;5055751;28;20200;-63
2022/03/10 00:23:45;;;;;;;22.33;12.73;;;;;;;-1.01;100.00;94571.34;5073748;28;20191;-64
2022/03/10 00:26:10;;;;;;;19.00;12.27;;;;;;;-0.91;100.00;94573.34;5080003;22;20697;-63
2022/03/10 00:28:35;;;;;;;20.47;12.57;;;;;;;-1.00;100.00;94571.25;5056242;28;20642;-65
2022/03/10 00:31:01;;;;;;;24.67;13.57;;;;;;;-1.08;100.00;94569.94;5073582;28;20341;-63
2022/03/10 00:33:26;;;;;;;20.67;11.83;;;;;;;-1.11;100.00;94580.06;5073813;28;20352;-63
2022/03/10 00:35:52;;;;;;;20.20;12.40;;;;;;;-1.18;100.00;94581.19;5072687;28;20635;-62
2022/03/10 00:38:18;;;;;;;21.37;13.67;;;;;;;-1.25;100.00;94574.84;5073758;28;20330;-63
2022/03/10 00:40:44;;;;;;;21.13;13.47;;;;;;;-1.11;100.00;94575.09;5073339;28;20211;-65
2022/03/10 00:43:13;;;;;;;25.07;13.33;;;;;;;-1.16;100.00;94565.28;5073376;28;20192;-62
2022/03/10 00:45:39;;;;;;;19.40;13.73;;;;;;;-1.15;100.00;94566.13;5073500;28;20219;-63
2022/03/10 00:48:06;;;;;;;20.70;13.63;;;;;;;-1.03;100.00;94563.09;5073187;28;20189;-62
2022/03/10 00:50:31;;;;;;;26.00;14.57;;;;;;;-0.93;100.00;94557.66;5072802;28;20211;-61
2022/03/10 00:52:57;;;;;;;19.77;12.90;;;;;;;-1.03;100.00;94555.63;5073304;28;20194;-63
2022/03/10 00:55:22;;;;;;;22.83;13.07;;;;;;;-1.05;100.00;94554.88;5072611;28;20207;-61
2022/03/10 00:57:49;;;;;;;20.57;13.40;;;;;;;-0.91;100.00;94562.59;5073719;28;20667;-64
2022/03/10 01:00:15;;;;;;;27.63;14.00;;;;;;;-1.04;100.00;94559.81;5061685;22;20198;-64
2022/03/10 01:02:41;;;;;;;21.40;12.47;;;;;;;-1.06;100.00;94558.22;5072663;28;20563;-61
2022/03/10 01:05:08;;;;;;;22.03;12.43;;;;;;;-1.11;100.00;94558.41;5072876;28;20209;-63
2022/03/10 01:07:34;;;;;;;21.70;12.33;;;;;;;-0.73;100.00;94559.31;5072941;28;20213;-62
2022/03/10 01:10:01;;;;;;;19.87;13.60;;;;;;;-0.45;100.00;94566.41;5072664;28;20179;-64
2022/03/10 01:12:26;;;;;;;20.67;12.37;;;;;;;-0.36;100.00;94559.31;5072636;28;20212;-63
2022/03/10 01:14:52;;;;;;;20.33;12.67;;;;;;;-0.18;100.00;94567.66;5072749;28;20215;-63
2022/03/10 01:17:18;;;;;;;21.27;11.70;;;;;;;-0.07;100.00;94576.31;5072897;28;20188;-64
2022/03/10 01:19:44;;;;;;;16.37;11.27;;;;;;;-0.26;100.00;94569.69;5072341;28;20207;-61
2022/03/10 01:22:09;;;;;;;16.83;11.03;;;;;;;-0.27;100.00;94571.41;5072192;28;20271;-64
2022/03/10 01:24:35;;;;;;;19.83;11.83;;;;;;;0.04;100.00;94578.34;5072589;28;20247;-62
2022/03/10 01:27:00;;;;;;;18.93;10.90;;;;;;;-0.09;100.00;94564.78;5091997;22;20277;-63
2022/03/10 01:29:26;;;;;;;17.33;11.10;;;;;;;-0.26;100.00;94564.72;5072445;28;20202;-61
2022/03/10 01:31:51;;;;;;;18.90;11.07;;;;;;;-0.48;100.00;94554.06;5072488;28;20647;-63
2022/03/10 01:34:17;;;;;;;20.53;11.77;;;;;;;-0.54;100.00;94551.81;5072528;28;20208;-62
2022/03/10 01:36:42;;;;;;;18.07;11.23;;;;;;;-0.32;100.00;94559.97;5072915;28;20235;-62
2022/03/10 01:39:08;;;;;;;17.70;10.63;;;;;;;-0.40;100.00;94562.00;5072073;28;20208;-62
2022/03/10 01:41:34;;;;;;;15.93;11.03;;;;;;;-0.49;100.00;94560.75;5072184;28;20212;-61
2022/03/10 01:44:08;;;;;;;18.23;11.83;;;;;;;-0.16;100.00;94566.72;5072209;28;20191;-63
2022/03/10 01:46:34;;;;;;;16.23;10.77;;;;;;;-0.06;100.00;94575.44;5109843;23;20226;-63
2022/03/10 01:49:00;;;;;;;17.77;11.43;;;;;;;-0.11;100.00;94564.84;5092256;28;20568;-62
2022/03/10 01:51:26;;;;;;;16.37;10.23;;;;;;;-0.12;100.00;94563.22;5092162;28;20217;-62
2022/03/10 01:53:52;;;;;;;19.67;10.50;;;;;;;-0.14;100.00;94574.97;5092264;28;20699;-65
2022/03/10 01:56:19;;;;;;;18.70;11.07;;;;;;;-0.31;100.00;94576.59;5091962;28;20211;-62
2022/03/10 01:58:47;;;;;;;14.13;9.33;;;;;;;-0.43;100.00;94574.63;5092451;28;20703;-63
2022/03/10 02:01:14;;;;;;;15.37;9.60;;;;;;;-0.52;100.00;94558.38;5090795;28;20245;-63
2022/03/10 02:03:40;;;;;;;16.93;10.90;;;;;;;-0.40;100.00;94562.00;5091021;28;20190;-64
2022/03/10 02:06:05;;;;;;;17.57;10.77;;;;;;;-0.13;100.00;94571.59;5090947;28;20579;-64
2022/03/10 02:11:17;;;;;;;18.50;9.40;;;;;;;0.29;100.00;94608.00;5072051;28;20227;-63
2022/03/10 02:13:43;;;;;;;12.67;9.17;;;;;;;0.27;100.00;94604.75;5071986;28;20265;-61
2022/03/10 02:19:00;;;;;;;15.07;9.90;;;;;;;0.38;100.00;94615.09;5072265;28;20241;-64
2022/03/10 02:21:26;;;;;;;16.43;10.73;;;;;;;0.50;99.93;94607.81;5054106;28;20634;-60
2022/03/10 02:23:52;;;;;;;16.47;10.53;;;;;;;0.49;99.64;94605.38;5054222;28;20702;-64
2022/03/10 02:26:17;;;;;;;16.67;9.73;;;;;;;0.50;100.00;94592.81;5053458;28;20213;-63
2022/03/10 02:28:43;;;;;;;15.63;10.50;;;;;;;0.50;99.52;94607.00;5072576;28;20681;-62
2022/03/10 02:31:09;;;;;;;15.67;10.33;;;;;;;0.65;97.34;94626.28;5071876;28;20244;-63
2022/03/10 02:33:35;;;;;;;15.50;10.03;;;;;;;0.72;96.26;94640.94;5072330;28;20173;-63
2022/03/10 02:36:08;;;;;;;15.27;9.80;;;;;;;0.55;98.17;94610.09;5053284;28;20277;-62
2022/03/10 02:38:34;;;;;;;15.17;9.67;;;;;;;0.59;96.94;94621.56;5084357;22;20228;-62
2022/03/10 02:40:59;;;;;;;15.50;9.83;;;;;;;0.49;96.74;94621.19;5071467;28;20595;-62
2022/03/10 02:43:25;;;;;;;14.37;10.07;;;;;;;0.40;97.86;94609.13;5072316;28;20188;-64
2022/03/10 02:45:51;;;;;;;14.80;9.77;;;;;;;0.43;97.79;94613.16;5078051;22;20232;-62
2022/03/10 02:48:18;;;;;;;14.60;9.70;;;;;;;0.46;98.44;94611.34;5071316;28;20650;-62
2022/03/10 02:50:44;;;;;;;16.67;10.30;;;;;;;0.43;98.33;94605.66;5071218;28;20580;-62
2022/03/10 02:53:11;;;;;;;15.90;10.80;;;;;;;0.42;98.53;94612.38;5071993;28;20261;-63
2022/03/10 02:55:37;;;;;;;18.10;10.27;;;;;;;0.45;97.55;94624.72;5053013;28;20219;-63
2022/03/10 02:58:03;;;;;;;16.07;10.03;;;;;;;0.46;96.55;94635.53;5071457;28;20180;-64
2022/03/10 03:00:29;;;;;;;19.53;10.43;;;;;;;0.38;96.57;94628.41;5074456;28;20201;-63
2022/03/10 03:02:55;;;;;;;16.23;10.23;;;;;;;0.28;96.72;94621.38;5057777;28;20199;-62
2022/03/10 03:05:20;;;;;;;16.77;10.53;;;;;;;0.41;95.44;94633.25;5075050;28;20230;-63
2022/03/10 03:07:48;;;;;;;17.97;11.03;;;;;;;0.09;96.67;94623.06;5057328;28;20176;-64
2022/03/10 03:10:14;;;;;;;18.57;11.20;;;;;;;0.18;97.23;94618.50;5057254;28;20736;-64
2022/03/10 03:12:48;;;;;;;19.67;10.87;;;;;;;-0.17;98.44;94594.28;5057498;28;20180;-61
2022/03/10 03:15:15;;;;;;;17.67;11.00;;;;;;;0.00;97.68;94612.63;5074865;28;20200;-62
2022/03/10 03:17:40;;;;;;;19.43;11.67;;;;;;;-0.17;98.38;94604.28;5056733;28;20184;-63
2022/03/10 03:20:06;;;;;;;16.87;9.83;;;;;;;-0.22;97.46;94621.13;5074633;28;20223;-64
2022/03/10 03:22:32;;;;;;;16.47;9.83;;;;;;;-0.22;95.60;94646.09;5074545;28;20303;-65
2022/03/10 03:24:57;;;;;;;15.83;9.23;;;;;;;-0.26;94.81;94652.91;5074757;28;20259;-61
2022/03/10 03:27:23;;;;;;;13.33;7.80;;;;;;;-0.30;93.43;94670.59;5074483;28;20254;-63
2022/03/10 03:29:49;;;;;;;14.50;7.93;;;;;;;-0.19;90.52;94703.41;5074314;28;20230;-63
2022/03/10 03:32:14;;;;;;;12.90;7.50;;;;;;;-0.38;89.67;94687.59;5074384;28;20704;-63
2022/03/10 03:34:40;;;;;;;11.73;7.50;;;;;;;-0.31;88.62;94701.44;5056266;28;20198;-62
2022/03/10 03:37:05;;;;;;;11.93;7.07;;;;;;;-0.46;89.01;94687.09;5074589;28;20196;-64
2022/03/10 03:39:31;;;;;;;12.33;8.00;;;;;;;-0.38;84.72;94745.81;5074555;28;20207;-64
2022/03/10 03:41:57;;;;;;;12.20;7.70;;;;;;;-0.65;88.28;94676.25;5074489;28;20215;-64
2022/03/10 03:44:22;;;;;;;11.00;6.90;;;;;;;-0.69;88.37;94689.75;5074103;28;20179;-61
2022/03/10 03:46:48;;;;;;;8.80;5.67;;;;;;;-0.56;85.55;94733.28;5074462;28;20207;-66
2022/03/10 03:49:13;;;;;;;10.57;6.73;;;;;;;-0.59;84.63;94745.91;5056267;28;20184;-63
2022/03/10 03:51:39;;;;;;;10.13;6.20;;;;;;;-0.55;83.90;94737.41;5095039;22;20251;-63
2022/03/10 03:54:06;;;;;;;12.40;6.40;;;;;;;-0.61;79.49;94808.34;5094552;28;20184;-63
2022/03/10 03:56:32;;;;;;;11.13;5.77;;;;;;;-0.99;81.09;94761.63;5093932;28;20214;-61
2022/03/10 03:58:57;;;;;;;9.43;5.53;;;;;;;-1.25;82.86;94726.91;5094322;28;20203;-63
2022/03/10 04:01:23;;;;;;;9.27;5.83;;;;;;;-1.52;85.16;94688.88;5092945;28;20714;-65
2022/03/10 04:03:49;;;;;;;9.60;5.57;;;;;;;-1.45;83.92;94719.34;5094296;28;20596;-63
2022/03/10 04:06:16;;;;;;;9.63;5.67;;;;;;;-1.39;84.33;94712.47;5094446;28;20202;-62
2022/03/10 04:08:41;;;;;;;10.80;5.70;;;;;;;-1.18;83.45;94725.78;5094805;28;20671;-62
2022/03/10 04:11:07;;;;;;;8.63;5.17;;;;;;;-1.12;83.02;94745.50;5087366;22;20258;-61
2022/03/10 04:13:33;;;;;;;9.03;5.67;;;;;;;-0.94;80.94;94782.22;5073894;28;20206;-63
2022/03/10 04:15:59;;;;;;;8.80;5.67;;;;;;;-1.12;81.04;94780.41;5074137;28;20204;-63
2022/03/10 04:18:24;;;;;;;9.50;5.40;;;;;;;-0.94;79.86;94793.00;5074033;28;20212;-63
2022/03/10 04:20:50;;;;;;;9.03;5.20;;;;;;;-0.88;79.45;94805.25;5074165;28;20247;-62
2022/03/10 04:23:15;;;;;;;9.03;5.47;;;;;;;-0.93;79.35;94796.31;5073869;28;20603;-62
2022/03/10 04:25:42;;;;;;;9.73;5.73;;;;;;;-1.01;78.99;94798.28;5073856;28;20626;-64
2022/03/10 04:28:07;;;;;;;10.43;6.03;;;;;;;-1.05;80.68;94771.84;5073417;28;20259;-64
2022/03/10 04:30:34;;;;;;;9.57;5.50;;;;;;;-1.15;79.77;94781.34;5074416;28;20294;-63
2022/03/10 04:33:00;;;;;;;8.70;5.70;;;;;;;-1.27;81.72;94746.91;5073546;28;20221;-64
2022/03/10 04:35:26;;;;;;;9.93;5.93;;;;;;;-1.07;79.95;94783.56;5073697;28;20207;-62
2022/03/10 04:37:53;;;;;;;9.40;6.07;;;;;;;-0.93;79.60;94779.66;5073241;28;20260;-64
2022/03/10 04:40:20;;;;;;;11.60;5.97;;;;;;;-0.89;79.65;94787.84;5073560;28;20651;-65
2022/03/10 04:42:46;;;;;;;11.73;6.43;;;;;;;-1.01;81.43;94749.19;5073093;28;20682;-62
2022/03/10 04:45:12;;;;;;;17.17;8.77;;;;;;;-1.12;82.68;94736.34;5080821;22;20236;-64
2022/03/10 04:47:38;;;;;;;13.80;7.43;;;;;;;-1.19;82.64;94729.16;5073002;28;20178;-64
2022/03/10 04:50:05;;;;;;;12.50;7.13;;;;;;;-1.30;84.92;94704.66;5072869;28;20214;-64
2022/03/10 04:52:32;;;;;;;12.10;6.80;;;;;;;-1.21;82.40;94765.81;5073076;28;20173;-63
2022/03/10 04:54:58;;;;;;;11.73;6.77;;;;;;;-1.25;81.05;94784.25;5055032;28;20184;-65
2022/03/10 04:57:24;;;;;;;12.80;7.07;;;;;;;-1.10;80.50;94793.63;5073454;28;20187;-63
2022/03/10 04:59:49;;;;;;;10.73;6.17;;;;;;;-1.18;80.49;94801.41;5055348;28;20218;-63
2022/03/10 05:02:15;;;;;;;11.57;6.00;;;;;;;-1.24;80.51;94800.81;5054710;28;20182;-62
2022/03/10 05:04:41;;;;;;;11.73;7.03;;;;;;;-1.23;81.25;94785.00;5073550;28;20195;-64
2022/03/10 05:07:06;;;;;;;9.63;6.00;;;;;;;-1.14;79.99;94812.06;5038306;28;20394;-63
2022/03/10 05:09:32;;;;;;;12.33;6.77;;;;;;;-1.14;79.90;94804.59;5072834;28;20602;-66
2022/03/10 05:11:58;;;;;;;16.33;7.23;;;;;;;-1.04;81.57;94784.25;5072411;28;20192;-62
2022/03/10 05:14:24;;;;;;;11.27;7.13;;;;;;;-0.95;80.31;94808.03;5113107;22;20251;-64
2022/03/10 05:16:49;;;;;;;11.77;7.17;;;;;;;-1.01;79.74;94823.22;5092777;28;20196;-62
2022/03/10 05:19:15;;;;;;;11.47;6.40;;;;;;;-1.12;80.81;94808.66;5092948;28;20209;-63
2022/03/10 05:21:40;;;;;;;13.43;7.77;;;;;;;-0.97;80.05;94835.50;5092711;28;20292;-65
2022/03/10 05:24:06;;;;;;;10.87;6.80;;;;;;;-0.78;81.08;94813.19;5093051;28;20648;-62
2022/03/10 05:26:31;;;;;;;11.87;6.97;;;;;;;-0.65;79.41;94860.94;5092444;28;20206;-62
2022/03/10 05:28:57;;;;;;;12.83;7.77;;;;;;;-0.57;78.64;94871.44;5091182;28;20193;-64
2022/03/10 05:31:22;;;;;;;13.13;7.10;;;;;;;-0.56;79.57;94858.06;5091771;28;20679;-65
2022/03/10 05:33:48;;;;;;;14.00;7.83;;;;;;;-0.64;79.97;94837.59;5093047;28;20211;-62
2022/03/10 05:36:13;;;;;;;14.63;7.30;;;;;;;-0.45;79.02;94868.47;5091159;28;20548;-63
2022/03/10 05:38:38;;;;;;;11.07;6.47;;;;;;;-0.38;78.62;94877.31;5093170;28;20295;-62
2022/03/10 05:41:05;;;;;;;13.80;6.60;;;;;;;-0.58;77.44;94895.56;5091049;28;20206;-63
2022/03/10 05:43:31;;;;;;;8.17;5.23;;;;;;;-0.48;75.06;94949.28;5092680;28;20263;-64
2022/03/10 05:45:57;;;;;;;9.33;5.50;;;;;;;-0.54;75.28;94949.50;5092376;28;20208;-63
2022/03/10 05:48:22;;;;;;;10.63;5.43;;;;;;;-0.75;74.83;94947.81;5090949;28;20185;-63
2022/03/10 05:50:48;;;;;;;9.67;5.57;;;;;;;-0.87;76.31;94913.34;5091377;28;20190;-63
2022/03/10 05:53:13;;;;;;;8.47;5.27;;;;;;;-0.87;75.44;94944.06;5090715;28;20191;-64
2022/03/10 05:55:39;;;;;;;8.87;5.20;;;;;;;-1.00;75.69;94924.63;5092124;28;20256;-65
2022/03/10 05:58:04;;;;;;;10.27;4.87;;;;;;;-1.11;75.84;94919.22;5114199;22;20239;-64
2022/03/10 06:00:30;;;;;;;7.13;5.07;;;;;;;-0.94;76.44;94919.41;5071632;28;20201;-63
2022/03/10 06:02:55;;;;;;;9.43;5.43;;;;;;;-1.04;77.11;94903.97;5071761;28;20637;-62
2022/03/10 06:05:21;;;;;;;10.40;5.53;;;;;;;-0.94;76.80;94907.75;5054170;28;20200;-64
2022/03/10 06:07:46;;;;;;;8.93;4.93;;;;;;;-0.96;76.41;94906.19;5072629;28;20188;-65
2022/03/10 06:10:14;;;;;;;8.63;5.37;;;;;;;-0.90;76.75;94900.97;5072067;28;20192;-65
2022/03/10 06:12:40;;;;;;;10.47;5.73;;;;;;;-0.79;77.74;94893.91;5053948;28;20192;-67
2022/03/10 06:15:07;;;;;;;16.80;6.77;;;;;;;-0.73;77.37;94911.16;5071953;28;20528;-62
2022/03/10 06:17:33;;;;;;;10.00;6.10;;;;;;;-0.71;76.35;94926.06;5071611;28;20200;-64
2022/03/10 06:19:59;;;;;;;9.40;5.87;;;;;;;-0.50;74.65;94965.19;5071518;28;20202;-64
2022/03/10 06:22:30;;;;;;;8.80;5.43;;;;;;;-0.33;73.95;94981.19;5053610;28;20185;-65
2022/03/10 06:24:56;;;;;;;9.60;6.03;;;;;;;-0.10;71.70;95031.06;5072307;28;20176;-62
2022/03/10 06:27:22;;;;;;;10.97;5.73;;;;;;;-0.07;71.85;95015.97;5072444;28;20195;-64
2022/03/10 06:29:49;;;;;;;7.77;4.90;;;;;;;0.07;69.07;95075.41;5071748;28;20172;-63
2022/03/10 06:32:18;;;;;;;6.00;4.03;;;;;;;0.01;69.98;95023.16;5071759;28;20185;-63
2022/03/10 06:34:45;;;;;;;5.80;3.60;;;;;;;0.10;65.65;95142.78;5096011;23;20330;-62
2022/03/10 06:37:12;;;;;;;4.00;3.30;;;;;;;0.06;66.37;95096.28;5101120;22;20190;-63
2022/03/10 06:39:38;;;;;;;6.47;3.73;;;;;;;-0.17;66.22;95084.63;5076557;28;20207;-62
2022/03/10 06:42:05;;;;;;;7.33;3.93;;;;;;;0.01;66.79;95070.63;5075647;28;20218;-65
2022/03/10 06:44:31;;;;;;;5.50;3.93;;;;;;;-0.13;68.52;95026.19;5075912;28;20215;-64
2022/03/10 06:46:57;;;;;;;7.57;4.87;;;;;;;0.02;68.82;95019.00;5075595;28;20292;-63
2022/03/10 06:49:23;;;;;;;10.43;6.07;;;;;;;-0.07;68.77;95023.47;5075615;28;20169;-65
2022/03/10 06:51:49;;;;;;;9.03;4.70;;;;;;;-0.16;69.26;95016.31;5075382;28;20329;-63
2022/03/10 06:54:15;;;;;;;7.23;4.47;;;;;;;-0.11;67.64;95063.59;5075531;28;20556;-65
2022/03/10 06:56:41;;;;;;;8.00;4.80;;;;;;;0.00;68.64;95027.34;5075041;28;20707;-64
2022/03/10 06:59:07;;;;;;;7.90;4.63;;;;;;;0.05;68.32;95031.34;5075800;28;20212;-64
2022/03/10 07:01:33;;;;;;;10.17;4.97;;;;;;;0.00;65.21;95119.78;5120003;22;20228;-62
2022/03/10 07:03:59;;;;;;;7.37;3.47;;;;;;;-0.06;64.99;95105.03;5091874;22;20227;-63
2022/03/10 07:06:26;;;;;;;5.57;3.53;;;;;;;-0.02;65.42;95089.03;5057020;28;20204;-65
2022/03/10 07:08:52;;;;;;;6.20;3.83;;;;;;;0.08;66.18;95083.72;5075480;28;20192;-63
2022/03/10 07:11:18;;;;;;;8.43;4.27;;;;;;;0.19;65.94;95091.63;5075112;28;20197;-64
2022/03/10 07:13:44;;;;;;;7.93;4.60;;;;;;;0.24;64.90;95104.78;5063718;23;20232;-64
2022/03/10 07:16:10;;;;;;;5.67;3.90;;;;;;;0.31;63.04;95144.47;5074834;28;20270;-63
2022/03/10 07:18:36;;;;;;;8.87;4.60;;;;;;;0.46;63.54;95140.59;5074824;28;20203;-65
2022/03/10 07:21:02;;;;;;;7.73;3.93;;;;;;;0.71;63.83;95144.56;5074724;28;20696;-63
2022/03/10 07:23:28;;;;;;;5.27;3.80;;;;;;;0.76;62.73;95154.41;5057010;28;20184;-63
2022/03/10 07:25:54;;;;;;;5.87;3.30;;;;;;;0.83;61.20;95190.81;5074656;28;20759;-66
2022/03/10 07:28:19;;;;;;;5.60;3.37;;;;;;;1.00;59.93;95208.50;5074681;28;20209;-65
2022/03/10 07:30:45;;;;;;;6.93;3.50;;;;;;;1.15;61.28;95172.84;5056671;28;20206;-69
2022/03/10 07:33:11;;;;;;;6.37;2.90;;;;;;;1.18;60.63;95192.75;5074533;28;20173;-65
2022/03/10 07:35:36;;;;;;;3.60;2.50;;;;;;;1.34;58.24;95236.34;5074992;28;20624;-63
2022/03/10 07:38:03;;;;;;;3.20;2.80;;;;;;;1.38;58.51;95200.28;5074858;28;20189;-62
2022/03/10 07:40:28;;;;;;;4.60;2.50;;;;;;;1.47;57.70;95224.97;5080879;22;20230;-62
2022/03/10 07:42:54;;;;;;;3.40;2.87;;;;;;;1.56;54.92;95262.16;5074637;28;20543;-62
2022/03/10 07:45:20;;;;;;;6.03;2.90;;;;;;;1.67;56.54;95235.00;5073983;28;20201;-64
2022/03/10 07:47:45;;;;;;;3.97;2.60;;;;;;;1.73;56.30;95223.91;5074276;28;20673;-63
2022/03/10 07:50:11;;;;;;;3.13;2.30;;;;;;;1.88;55.02;95250.03;5074257;28;20193;-61
2022/03/10 07:52:36;;;;;;;1.70;1.57;;;;;;;1.85;54.77;95257.66;5074411;28;20229;-64
2022/03/10 07:55:05;;;;;;;2.10;1.90;;;;;;;1.98;55.56;95226.19;5074862;28;20177;-64
2022/03/10 07:57:31;;;;;;;4.53;1.63;;;;;;;1.98;54.40;95261.28;5056414;28;20191;-60
2022/03/10 07:59:56;;;;;;;3.73;1.83;;;;;;;2.11;53.38;95277.44;5074382;28;20216;-62
2022/03/10 08:02:22;;;;;;;3.20;1.73;;;;;;;2.06;53.76;95256.78;5074396;28;20579;-64
2022/03/10 08:04:48;;;;;;;2.87;1.80;;;;;;;2.25;50.76;95310.25;5056287;28;20196;-62
2022/03/10 08:07:13;;;;;;;3.13;2.10;;;;;;;2.07;49.33;95265.91;5074289;28;20181;-62
2022/03/10 08:09:39;;;;;;;3.00;2.23;;;;;;;2.24;50.27;95183.25;5074665;28;20188;-63
2022/03/10 08:12:05;;;;;;;5.37;3.00;;;;;;;2.13;51.99;95152.81;5074292;28;20641;-61
2022/03/10 08:14:31;;;;;;;3.47;2.50;;;;;;;2.09;52.57;95123.75;5055936;28;20221;-63
2022/03/10 08:16:56;;;;;;;2.80;2.17;;;;;;;1.70;52.92;95112.09;5055728;28;20284;-65
2022/03/10 08:19:21;;;;;;;6.13;2.37;;;;;;;1.57;54.79;95068.41;5056576;28;20682;-63
2022/03/10 08:21:48;;;;;;;5.53;2.47;;;;;;;1.38;54.60;95092.59;5055942;28;20200;-62
2022/03/10 08:24:13;;;;;;;5.70;2.80;;;;;;;1.22;54.79;95076.59;5056468;28;20287;-63
2022/03/10 08:26:39;;;;;;;7.03;2.50;;;;;;;1.20;55.84;95055.00;5074421;28;20224;-62
2022/03/10 08:29:05;;;;;;;3.97;2.97;;;;;;;1.28;56.97;95041.28;5073995;28;20198;-62
2022/03/10 08:31:37;;;;;;;3.53;2.43;;;;;;;1.33;55.58;95084.50;5073488;28;20218;-61
2022/03/10 08:34:03;;;;;;;4.43;2.80;;;;;;;1.26;56.80;95029.72;5074558;28;20226;-64
2022/03/10 08:36:30;;;;;;;3.00;2.27;;;;;;;1.34;57.14;95043.53;5055606;28;20208;-62
2022/03/10 08:38:56;;;;;;;3.90;2.30;;;;;;;1.62;57.92;95023.09;5073626;28;20743;-65
2022/03/10 08:41:21;;;;;;;3.20;2.60;;;;;;;2.07;57.55;95026.06;5055281;28;20205;-63
2022/03/10 08:43:46;;;;;;;5.70;3.00;;;;;;;2.27;56.36;95067.75;5055464;28;20209;-64
2022/03/10 08:46:12;;;;;;;3.13;2.73;;;;;;;2.15;54.30;95096.72;5073469;28;20204;-62
2022/03/10 08:48:39;;;;;;;3.37;2.10;;;;;;;2.29;53.65;95121.16;5073568;28;20191;-65
2022/03/10 08:51:04;;;;;;;6.20;2.40;;;;;;;2.79;54.16;95107.09;5072936;28;20578;-61
2022/03/10 08:53:35;;;;;;;4.30;2.20;;;;;;;3.49;54.96;95093.63;5073236;28;20560;-63
2022/03/10 08:56:01;;;;;;;2.83;2.20;;;;;;;3.75;52.23;95136.66;5072974;28;20193;-63
2022/03/10 08:58:27;;;;;;;3.83;2.27;;;;;;;3.35;51.25;95162.16;5054509;28;20215;-62
2022/03/10 09:00:54;;;;;;;4.60;2.70;;;;;;;3.47;51.25;95130.56;5054673;28;20290;-61
2022/03/10 09:03:20;;;;;;;4.17;2.50;;;;;;;4.13;49.93;95167.38;5073132;28;20192;-65
2022/03/10 09:05:46;;;;;;;6.20;2.50;;;;;;;4.12;50.14;95145.66;5054815;28;20677;-63
2022/03/10 09:08:11;;;;;;;2.73;1.90;;;;;;;3.62;47.64;95215.25;5055811;28;20181;-64
2022/03/10 09:10:37;;;;;;;2.53;1.97;;;;;;;3.87;47.57;95188.03;5072816;28;20225;-63
2022/03/10 09:13:04;;;;;;;4.73;2.37;;;;;;;3.86;46.75;95179.66;5072818;28;20254;-62
2022/03/10 09:15:31;;;;;;;3.63;2.03;;;;;;;3.40;49.33;95128.38;5072748;28;20560;-62
2022/03/10 09:17:56;;;;;;;3.97;1.90;;;;;;;2.99;48.69;95108.66;5072540;28;20208;-62
2022/03/10 09:20:22;;;;;;;5.63;3.00;;;;;;;2.53;49.68;95117.53;5072841;28;20258;-62
2022/03/10 09:22:49;;;;;;;3.63;2.50;;;;;;;2.24;50.06;95101.28;5054518;28;20215;-62
2022/03/10 09:25:15;;;;;;;6.07;2.60;;;;;;;2.06;50.86;95063.72;5054668;28;20200;-60
2022/03/10 09:27:41;;;;;;;7.50;2.30;;;;;;;2.03;52.01;95053.81;5072708;28;20272;-63
2022/03/10 09:30:09;;;;;;;5.53;2.17;;;;;;;1.87;53.86;95016.13;5072697;28;20212;-62
2022/03/10 09:32:39;;;;;;;3.83;2.50;;;;;;;1.73;53.71;95015.94;5072234;28;20570;-65
2022/03/10 09:35:08;;;;;;;1.90;1.80;;;;;;;2.12;49.59;95111.88;5072027;28;20205;-62
2022/03/10 09:37:34;;;;;;;2.77;2.03;;;;;;;1.96;52.07;95062.53;5072154;28;20199;-63
2022/03/10 09:40:00;;;;;;;2.53;2.03;;;;;;;2.15;51.75;95069.13;5072315;28;20216;-63
2022/03/10 09:42:31;;;;;;;5.57;1.90;;;;;;;2.36;47.98;95150.91;5054387;28;20211;-63
2022/03/10 09:44:57;;;;;;;4.83;2.07;;;;;;;2.28;49.30;95114.53;5071733;28;20658;-62
2022/03/10 09:47:23;;;;;;;3.07;1.90;;;;;;;1.91;50.38;95097.81;5071799;28;20188;-63
2022/03/10 09:49:49;;;;;;;3.07;1.70;;;;;;;1.93;52.19;95050.13;5053786;28;20181;-64
2022/03/10 09:52:15;;;;;;;1.63;1.47;;;;;;;1.95;47.86;95158.63;5071481;28;20204;-64
2022/03/10 09:54:40;;;;;;;3.77;1.93;;;;;;;2.29;50.35;95101.91;5053668;28;20220;-62
2022/03/10 09:57:07;;;;;;;2.70;1.70;;;;;;;2.53;46.65;95180.25;5072364;28;20728;-63
2022/03/10 09:59:33;;;;;;;2.17;1.80;;;;;;;2.61;48.58;95117.97;5071871;28;20216;-61
2022/03/10 10:02:01;;;;;;;2.63;1.80;;;;;;;2.95;46.94;95170.75;5054056;28;20708;-63
2022/03/10 10:04:29;;;;;;;2.30;1.90;;;;;;;3.19;48.70;95126.88;5071687;28;20274;-61
2022/03/10 10:07:03;;;;;;;2.97;1.80;;;;;;;3.21;48.32;95147.72;5078054;22;20216;-65
2022/03/10 10:09:51;;;;;;;3.03;1.77;;;;;;;3.13;45.02;95227.63;5071652;28;20173;-65
2022/03/10 10:12:17;;;;;;;2.23;1.90;;;;;;;2.87;46.14;95175.31;5051603;28;20552;-62
2022/03/10 10:14:47;;;;;;;2.67;2.07;;;;;;;2.99;47.78;95134.56;5051982;28;20540;-61
2022/03/10 10:17:13;;;;;;;2.33;2.13;;;;;;;2.97;46.56;95166.47;5065965;22;20224;-63
2022/03/10 10:19:40;;;;;;;4.90;2.03;;;;;;;3.13;46.93;95156.53;5071656;28;20204;-67
2022/03/10 10:22:19;;;;;;;4.27;1.80;;;;;;;3.70;45.39;95198.09;5053648;28;20235;-66
2022/03/10 10:24:58;;;;;;;3.13;2.10;;;;;;;3.73;47.69;95153.53;5071506;28;20183;-62
2022/03/10 10:27:34;;;;;;;4.90;2.23;;;;;;;3.61;46.65;95180.97;5071823;28;20184;-63
2022/03/10 10:30:03;;;;;;;8.10;2.37;;;;;;;3.08;46.54;95181.84;5072637;28;20170;-63
2022/03/10 10:32:32;;;;;;;3.17;2.00;;;;;;;3.06;47.29;95160.19;5072088;28;20193;-63
2022/03/10 10:35:06;;;;;;;2.37;1.60;;;;;;;3.13;47.01;95149.78;5071345;28;20202;-63
2022/03/10 10:37:33;;;;;;;3.97;2.10;;;;;;;3.15;45.57;95194.94;5072014;28;20181;-65
2022/03/10 10:39:58;;;;;;;3.20;2.07;;;;;;;3.13;47.72;95142.25;5071241;28;20582;-60
2022/03/10 10:42:32;;;;;;;4.93;2.00;;;;;;;2.61;48.36;95095.41;5071263;28;20719;-66
2022/03/10 10:45:01;;;;;;;2.47;2.03;;;;;;;2.97;50.03;95091.13;5053416;28;20173;-63
2022/03/10 10:47:27;;;;;;;2.17;1.93;;;;;;;2.82;47.60;95131.25;5071466;28;20220;-65
2022/03/10 10:50:05;;;;;;;2.70;1.87;;;;;;;2.93;48.23;95124.81;5053161;28;20218;-63
2022/03/10 10:52:41;;;;;;;4.23;2.30;;;;;;;3.33;50.04;95086.81;5071707;28;20187;-61
2022/03/10 10:55:10;;;;;;;2.60;2.10;;;;;;;3.32;48.01;95132.94;5071032;28;20201;-64
2022/03/10 10:57:37;;;;;;;1.93;1.70;;;;;;;3.38;46.91;95167.00;5053215;28;20192;-64
2022/03/10 11:00:09;;;;;;;4.00;2.13;;;;;;;3.26;46.28;95163.41;5052766;28;20212;-63
2022/03/10 11:02:39;;;;;;;4.33;2.17;;;;;;;3.17;46.24;95175.59;5071533;28;20192;-63
2022/03/10 11:05:08;;;;;;;2.30;2.10;;;;;;;3.00;47.79;95128.66;5053527;28;20220;-62
2022/03/10 11:07:35;;;;;;;3.33;1.70;;;;;;;3.28;48.48;95111.38;5071027;28;20196;-63
2022/03/10 11:10:03;;;;;;;2.77;2.00;;;;;;;3.92;47.32;95149.16;5052563;28;20216;-66
2022/03/10 11:12:28;;;;;;;3.77;2.63;;;;;;;4.45;48.36;95117.88;5071110;28;20681;-63
2022/03/10 11:14:54;;;;;;;8.40;2.57;;;;;;;4.36;47.52;95126.75;5077256;22;20220;-64
2022/03/10 11:17:19;;;;;;;3.87;2.50;;;;;;;4.44;44.93;95189.25;5070768;28;20268;-64
2022/03/10 11:19:47;;;;;;;3.83;1.83;;;;;;;5.11;47.98;95121.75;5071043;28;20205;-62
2022/03/10 11:22:31;;;;;;;3.10;2.20;;;;;;;5.23;44.96;95189.13;5056542;28;20646;-64
2022/03/10 11:25:21;;;;;;;4.50;2.40;;;;;;;5.09;45.56;95169.72;5074987;28;20285;-64
2022/03/10 11:28:09;;;;;;;4.57;2.37;;;;;;;4.77;46.38;95153.03;5074851;28;20653;-64
2022/03/10 11:30:35;;;;;;;5.93;2.70;;;;;;;5.85;47.62;95127.56;5081333;22;20706;-63
2022/03/10 11:33:16;;;;;;;3.03;2.20;;;;;;;5.96;43.32;95217.78;5074455;28;20176;-62